createdAt,value
2017-09-22T00:01:07.692Z,15.40
2017-09-22T00:03:35.251Z,15.40
2017-09-22T00:06:02.725Z,15.40
2017-09-22T00:08:30.194Z,15.40
2017-09-22T00:10:57.674Z,15.30
2017-09-22T00:13:25.178Z,15.40
2017-09-22T00:15:52.655Z,15.40
2017-09-22T00:18:20.113Z,15.40
2017-09-22T00:20:47.586Z,15.40
2017-09-22T00:23:15.065Z,15.40
2017-09-22T00:25:42.524Z,15.30
2017-09-22T00:28:10.760Z,15.20
2017-09-22T00:30:38.229Z,15.20
2017-09-22T00:33:05.697Z,15.20
2017-09-22T00:35:33.198Z,15.20
2017-09-22T00:38:00.676Z,15.20
2017-09-22T00:40:28.133Z,15.20
2017-09-22T00:42:55.601Z,15.20
2017-09-22T00:45:23.064Z,15.10
2017-09-22T00:47:50.537Z,15.10
2017-09-22T00:50:18.011Z,15.00
2017-09-22T00:52:46.250Z,14.90
2017-09-22T00:55:13.713Z,14.90
2017-09-22T00:57:41.201Z,14.90
2017-09-22T01:00:09.512Z,14.90
2017-09-22T01:02:36.978Z,14.90
2017-09-22T01:05:04.443Z,14.90
2017-09-22T01:07:31.922Z,14.90
2017-09-22T01:09:59.440Z,14.90
2017-09-22T01:12:26.905Z,14.90
2017-09-22T01:14:54.372Z,14.90
2017-09-22T01:17:21.836Z,14.90
2017-09-22T01:19:49.292Z,14.90
2017-09-22T01:22:16.777Z,14.80
2017-09-22T01:24:44.240Z,14.80
2017-09-22T01:27:12.557Z,14.80
2017-09-22T01:29:40.012Z,14.70
2017-09-22T01:32:07.484Z,14.70
2017-09-22T01:34:34.954Z,14.70
2017-09-22T01:37:02.422Z,14.70
2017-09-22T01:39:29.885Z,14.70
2017-09-22T01:41:57.356Z,14.70
2017-09-22T01:44:25.582Z,14.50
2017-09-22T01:46:53.047Z,14.50
2017-09-22T01:49:20.513Z,14.50
2017-09-22T01:51:47.995Z,14.50
2017-09-22T01:54:15.463Z,14.50
2017-09-22T01:56:43.712Z,14.50
2017-09-22T01:59:11.180Z,14.40
2017-09-22T02:01:38.648Z,14.50
2017-09-22T02:04:06.884Z,14.50
2017-09-22T02:06:34.357Z,14.40
2017-09-22T02:09:01.886Z,14.50
2017-09-22T02:11:29.345Z,14.50
2017-09-22T02:13:56.817Z,14.50
2017-09-22T02:16:24.347Z,14.50
2017-09-22T02:18:51.814Z,14.50
2017-09-22T02:21:19.291Z,14.60
2017-09-22T02:23:46.779Z,14.60
2017-09-22T02:26:15.005Z,14.60
2017-09-22T02:28:42.482Z,14.50
2017-09-22T02:31:09.956Z,14.70
2017-09-22T02:33:37.459Z,14.70
2017-09-22T02:36:05.022Z,14.60
2017-09-22T02:38:32.484Z,14.50
2017-09-22T02:41:00.037Z,14.50
2017-09-22T02:43:27.504Z,14.50
2017-09-22T02:45:54.972Z,14.40
2017-09-22T02:48:22.432Z,14.40
2017-09-22T02:50:49.905Z,14.30
2017-09-22T02:53:17.421Z,14.20
2017-09-22T02:55:44.886Z,14.20
2017-09-22T02:58:12.352Z,14.20
2017-09-22T03:00:39.816Z,14.30
2017-09-22T03:03:07.281Z,14.30
2017-09-22T03:05:34.751Z,14.40
2017-09-22T03:08:02.264Z,14.50
2017-09-22T03:10:29.735Z,14.50
2017-09-22T03:12:57.197Z,14.50
2017-09-22T03:15:24.665Z,14.50
2017-09-22T03:17:52.133Z,14.50
2017-09-22T03:20:19.650Z,14.50
2017-09-22T03:22:47.217Z,14.50
2017-09-22T03:25:14.711Z,14.50
2017-09-22T03:27:42.164Z,14.60
2017-09-22T03:30:09.633Z,14.60
2017-09-22T03:32:37.868Z,14.40
2017-09-22T03:35:05.329Z,14.40
2017-09-22T03:37:32.864Z,14.30
2017-09-22T03:40:00.341Z,14.30
2017-09-22T03:42:27.800Z,14.10
2017-09-22T03:44:55.257Z,14.00
2017-09-22T03:47:22.739Z,14.00
2017-09-22T03:49:50.201Z,14.00
2017-09-22T03:52:17.681Z,14.00
2017-09-22T03:54:45.167Z,14.10
2017-09-22T03:57:12.652Z,14.10
2017-09-22T03:59:40.137Z,14.20
2017-09-22T04:02:08.395Z,14.20
2017-09-22T04:04:35.866Z,14.10
2017-09-22T04:07:03.340Z,14.20
2017-09-22T04:09:31.598Z,14.30
2017-09-22T04:11:59.065Z,14.30
2017-09-22T04:14:27.298Z,14.30
2017-09-22T04:16:54.769Z,14.30
2017-09-22T04:19:22.245Z,14.30
2017-09-22T04:21:50.473Z,14.30
2017-09-22T04:24:17.951Z,14.20
2017-09-22T04:26:45.438Z,14.30
2017-09-22T04:29:13.678Z,14.30
2017-09-22T04:31:41.158Z,14.20
2017-09-22T04:34:08.621Z,14.30
2017-09-22T04:36:36.849Z,14.10
2017-09-22T04:39:04.322Z,14.10
2017-09-22T04:41:31.800Z,14.10
2017-09-22T04:43:59.283Z,14.10
2017-09-22T04:46:27.500Z,13.90
2017-09-22T04:48:54.978Z,13.90
2017-09-22T04:51:22.454Z,13.90
2017-09-22T04:53:50.696Z,13.90
2017-09-22T04:56:18.152Z,13.90
2017-09-22T04:58:45.625Z,14.00
2017-09-22T05:01:13.143Z,14.00
2017-09-22T05:03:40.606Z,14.00
2017-09-22T05:06:08.098Z,14.00
2017-09-22T05:08:35.569Z,14.00
2017-09-22T05:11:03.810Z,14.00
2017-09-22T05:13:31.268Z,14.00
2017-09-22T05:15:58.749Z,14.10
2017-09-22T05:18:26.235Z,14.10
2017-09-22T05:20:53.700Z,14.20
2017-09-22T05:23:21.156Z,14.20
2017-09-22T05:25:48.678Z,14.20
2017-09-22T05:28:16.278Z,14.10
2017-09-22T05:30:43.765Z,14.10
2017-09-22T05:33:11.237Z,14.10
2017-09-22T05:35:38.848Z,14.10
2017-09-22T05:38:06.365Z,14.20
2017-09-22T05:40:33.844Z,14.30
2017-09-22T05:43:02.060Z,14.40
2017-09-22T05:45:29.534Z,14.50
2017-09-22T05:47:57.013Z,14.50
2017-09-22T05:50:24.493Z,14.50
2017-09-22T05:52:52.743Z,14.60
2017-09-22T05:55:20.211Z,14.50
2017-09-22T05:57:48.530Z,14.70
2017-09-22T06:00:16.042Z,14.60
2017-09-22T06:02:43.512Z,14.70
2017-09-22T06:05:11.751Z,14.80
2017-09-22T06:07:39.227Z,14.80
2017-09-22T06:10:06.774Z,14.90
2017-09-22T06:12:34.356Z,15.00
2017-09-22T06:15:02.623Z,15.10
2017-09-22T06:17:30.925Z,15.20
2017-09-22T06:19:58.444Z,15.20
2017-09-22T06:22:26.003Z,15.30
2017-09-22T06:24:53.473Z,15.30
2017-09-22T06:27:21.042Z,15.20
2017-09-22T06:29:49.278Z,15.40
2017-09-22T06:32:16.750Z,15.30
2017-09-22T06:34:44.322Z,15.50
2017-09-22T06:37:11.786Z,15.70
2017-09-22T06:39:40.040Z,15.90
2017-09-22T06:42:07.502Z,15.90
2017-09-22T06:44:34.990Z,16.00
2017-09-22T06:47:03.223Z,16.10
2017-09-22T06:49:30.700Z,16.10
2017-09-22T06:51:58.945Z,16.10
2017-09-22T06:54:26.436Z,16.10
2017-09-22T06:56:54.677Z,16.10
2017-09-22T06:59:22.132Z,16.00
2017-09-22T07:01:49.596Z,16.10
2017-09-22T07:04:17.065Z,16.00
2017-09-22T07:06:44.523Z,16.00
2017-09-22T07:09:11.998Z,15.90
2017-09-22T07:11:40.223Z,15.90
2017-09-22T07:14:07.702Z,15.80
2017-09-22T07:16:35.171Z,15.80
2017-09-22T07:19:02.645Z,15.90
2017-09-22T07:21:30.876Z,16.00
2017-09-22T07:23:58.353Z,15.90
2017-09-22T07:26:25.832Z,16.10
2017-09-22T07:28:54.088Z,16.40
2017-09-22T07:31:21.545Z,16.30
2017-09-22T07:33:49.096Z,16.40
2017-09-22T07:36:16.577Z,16.40
2017-09-22T07:38:44.855Z,16.50
2017-09-22T07:41:13.096Z,16.60
2017-09-22T07:43:40.676Z,16.50
2017-09-22T07:46:08.133Z,16.60
2017-09-22T07:48:35.683Z,16.70
2017-09-22T07:51:03.251Z,16.80
2017-09-22T07:53:32.249Z,16.70
2017-09-22T07:56:00.610Z,16.70
2017-09-22T07:58:28.080Z,16.70
2017-09-22T08:00:55.652Z,16.80
2017-09-22T08:03:23.885Z,16.50
2017-09-22T08:05:51.470Z,16.50
2017-09-22T08:08:19.881Z,16.60
2017-09-22T08:10:47.454Z,16.60
2017-09-22T08:13:15.014Z,16.70
2017-09-22T08:15:42.481Z,16.80
2017-09-22T08:18:09.949Z,17.00
2017-09-22T08:20:37.404Z,17.10
2017-09-22T08:23:04.867Z,17.00
2017-09-22T08:25:32.445Z,17.00
2017-09-22T08:28:01.605Z,17.30
2017-09-22T08:30:29.919Z,17.50
2017-09-22T08:32:57.413Z,17.40
2017-09-22T08:35:24.905Z,17.50
2017-09-22T08:37:52.390Z,17.60
2017-09-22T08:40:20.732Z,17.80
2017-09-22T08:42:49.742Z,17.70
2017-09-22T08:45:17.617Z,17.70
2017-09-22T08:47:45.086Z,17.60
2017-09-22T08:50:12.600Z,17.50
2017-09-22T08:52:40.089Z,17.30
2017-09-22T08:55:07.627Z,17.20
2017-09-22T08:57:35.098Z,17.40
2017-09-22T09:00:02.574Z,17.70
2017-09-22T09:02:30.037Z,17.80
2017-09-22T09:04:57.500Z,17.80
2017-09-22T09:07:25.758Z,18.00
2017-09-22T09:09:54.047Z,18.10
2017-09-22T09:12:21.580Z,18.10
2017-09-22T09:14:49.052Z,18.20
2017-09-22T09:17:17.313Z,17.80
2017-09-22T09:19:44.773Z,17.80
2017-09-22T09:22:12.247Z,17.60
2017-09-22T09:24:39.797Z,17.70
2017-09-22T09:27:08.758Z,18.10
2017-09-22T09:29:36.238Z,18.10
2017-09-22T09:32:03.703Z,18.50
2017-09-22T09:34:31.969Z,18.60
2017-09-22T09:36:59.420Z,18.50
2017-09-22T09:39:27.002Z,18.60
2017-09-22T09:41:54.456Z,19.00
2017-09-22T09:44:21.928Z,19.10
2017-09-22T09:46:50.143Z,18.80
2017-09-22T09:49:17.614Z,18.70
2017-09-22T09:51:45.084Z,18.90
2017-09-22T09:54:12.557Z,19.00
2017-09-22T09:56:40.101Z,18.80
2017-09-22T09:59:07.565Z,18.80
2017-09-22T10:01:35.017Z,18.80
2017-09-22T10:04:02.473Z,19.20
2017-09-22T10:06:30.752Z,19.30
2017-09-22T10:08:58.235Z,19.30
2017-09-22T10:11:26.452Z,19.20
2017-09-22T10:13:53.966Z,19.10
2017-09-22T10:16:22.199Z,19.40
2017-09-22T10:18:49.726Z,19.30
2017-09-22T10:21:17.230Z,19.40
2017-09-22T10:23:44.794Z,19.70
2017-09-22T10:26:12.274Z,19.90
2017-09-22T10:28:40.517Z,19.50
2017-09-22T10:31:08.026Z,19.50
2017-09-22T10:33:35.498Z,20.10
2017-09-22T10:36:02.958Z,20.40
2017-09-22T10:38:30.420Z,20.40
2017-09-22T10:40:57.881Z,20.50
2017-09-22T10:43:25.420Z,20.40
2017-09-22T10:45:52.939Z,20.10
2017-09-22T10:48:21.174Z,19.20
2017-09-22T10:50:48.637Z,19.20
2017-09-22T10:53:16.100Z,18.80
2017-09-22T10:55:43.717Z,18.70
2017-09-22T10:58:11.221Z,18.60
2017-09-22T11:00:38.876Z,18.60
2017-09-22T11:03:06.341Z,18.70
2017-09-22T11:05:33.825Z,19.10
2017-09-22T11:08:02.065Z,20.70
2017-09-22T11:10:29.633Z,20.60
2017-09-22T11:12:57.104Z,20.70
2017-09-22T11:15:24.563Z,20.90
2017-09-22T11:17:52.026Z,21.40
2017-09-22T11:20:20.277Z,23.20
2017-09-22T11:22:48.272Z,23.10
2017-09-22T11:25:16.526Z,25.10
2017-09-22T11:27:43.990Z,25.10
2017-09-22T11:30:11.595Z,25.50
2017-09-22T11:32:39.063Z,24.90
2017-09-22T11:35:08.145Z,23.60
2017-09-22T11:37:35.607Z,23.50
2017-09-22T11:40:03.074Z,23.20
2017-09-22T11:42:30.617Z,23.20
2017-09-22T11:44:58.074Z,23.30
2017-09-22T11:47:25.538Z,23.50
2017-09-22T11:49:53.001Z,23.90
2017-09-22T11:52:20.457Z,23.80
2017-09-22T11:54:47.924Z,23.50
2017-09-22T11:57:15.393Z,23.50
2017-09-22T11:59:42.913Z,23.80
2017-09-22T12:02:10.378Z,24.00
2017-09-22T12:04:37.835Z,23.80
2017-09-22T12:07:05.289Z,23.60
2017-09-22T12:09:32.749Z,23.50
2017-09-22T12:12:00.209Z,23.10
2017-09-22T12:14:27.674Z,22.60
2017-09-22T12:16:55.132Z,22.30
2017-09-22T12:19:22.598Z,22.00
2017-09-22T12:21:50.079Z,21.80
2017-09-22T12:24:17.634Z,21.80
2017-09-22T12:26:45.106Z,21.40
2017-09-22T12:29:13.360Z,20.70
2017-09-22T12:31:40.921Z,20.60
2017-09-22T12:34:08.377Z,20.50
2017-09-22T12:36:35.846Z,20.30
2017-09-22T12:39:03.326Z,20.00
2017-09-22T12:41:30.787Z,19.70
2017-09-22T12:43:58.234Z,19.60
2017-09-22T12:46:25.714Z,19.60
2017-09-22T12:48:53.205Z,19.70
2017-09-22T12:51:20.670Z,19.70
2017-09-22T12:53:48.128Z,19.80
2017-09-22T12:56:15.778Z,19.80
2017-09-22T12:58:43.229Z,19.80
2017-09-22T13:01:10.695Z,19.90
2017-09-22T13:03:38.141Z,19.90
2017-09-22T13:06:05.604Z,20.00
2017-09-22T13:08:33.075Z,20.20
2017-09-22T13:11:00.553Z,20.30
2017-09-22T13:13:28.782Z,20.50
2017-09-22T13:15:56.256Z,20.50
2017-09-22T13:18:23.719Z,20.60
2017-09-22T13:20:51.329Z,20.80
2017-09-22T13:23:18.855Z,20.80
2017-09-22T13:25:47.081Z,20.60
2017-09-22T13:28:14.568Z,20.60
2017-09-22T13:30:42.025Z,20.50
2017-09-22T13:33:09.505Z,20.30
2017-09-22T13:35:37.735Z,20.00
2017-09-22T13:38:05.201Z,20.00
2017-09-22T13:40:34.166Z,20.00
2017-09-22T13:43:01.640Z,20.00
2017-09-22T13:45:29.101Z,20.10
2017-09-22T13:47:56.574Z,20.10
2017-09-22T13:50:24.851Z,20.30
2017-09-22T13:52:52.451Z,20.30
2017-09-22T13:55:19.913Z,20.60
2017-09-22T13:57:47.377Z,20.90
2017-09-22T14:00:14.832Z,21.10
2017-09-22T14:02:42.345Z,21.30
2017-09-22T14:05:09.850Z,21.60
2017-09-22T14:07:37.321Z,22.00
2017-09-22T14:10:04.773Z,22.30
2017-09-22T14:12:32.364Z,22.40
2017-09-22T14:14:59.833Z,22.70
2017-09-22T14:17:28.094Z,23.10
2017-09-22T14:19:55.562Z,23.00
2017-09-22T14:22:23.020Z,23.30
2017-09-22T14:24:51.341Z,23.90
2017-09-22T14:27:18.840Z,23.90
2017-09-22T14:29:46.309Z,24.40
2017-09-22T14:32:13.773Z,24.90
2017-09-22T14:34:42.005Z,25.40
2017-09-22T14:37:09.466Z,25.40
2017-09-22T14:39:36.937Z,25.70
2017-09-22T14:42:04.394Z,25.80
2017-09-22T14:44:31.877Z,25.60
2017-09-22T14:47:00.115Z,25.60
2017-09-22T14:49:27.594Z,25.50
2017-09-22T14:51:55.074Z,26.00
2017-09-22T14:54:22.603Z,26.60
2017-09-22T14:56:50.178Z,27.50
2017-09-22T14:59:17.657Z,27.90
2017-09-22T15:01:45.194Z,28.40
2017-09-22T15:04:13.452Z,29.80
2017-09-22T15:06:40.937Z,29.60
2017-09-22T15:09:09.200Z,30.80
2017-09-22T15:11:37.457Z,31.30
2017-09-22T15:14:04.929Z,31.20
2017-09-22T15:16:32.396Z,31.60
2017-09-22T15:19:00.634Z,32.30
2017-09-22T15:21:28.206Z,32.20
2017-09-22T15:23:55.667Z,32.40
2017-09-22T15:26:23.137Z,32.70
2017-09-22T15:28:51.453Z,33.20
2017-09-22T15:31:18.918Z,33.20
2017-09-22T15:33:46.382Z,33.40
2017-09-22T15:36:13.857Z,33.70
2017-09-22T15:38:41.313Z,34.00
2017-09-22T15:41:08.806Z,34.30
2017-09-22T15:43:37.035Z,34.50
2017-09-22T15:46:04.489Z,34.40
2017-09-22T15:48:31.963Z,34.40
2017-09-22T15:50:59.422Z,34.50
2017-09-22T15:53:26.880Z,34.50
2017-09-22T15:55:54.337Z,33.50
2017-09-22T15:58:21.825Z,33.10
2017-09-22T16:00:50.056Z,32.60
2017-09-22T16:03:17.531Z,32.50
2017-09-22T16:05:44.983Z,32.80
2017-09-22T16:08:12.454Z,32.80
2017-09-22T16:10:40.682Z,32.10
2017-09-22T16:13:08.136Z,32.10
2017-09-22T16:15:35.639Z,31.50
2017-09-22T16:18:03.094Z,31.20
2017-09-22T16:20:30.549Z,31.00
2017-09-22T16:22:58.017Z,30.70
2017-09-22T16:25:26.247Z,29.80
2017-09-22T16:27:53.710Z,29.80
2017-09-22T16:30:21.183Z,28.90
2017-09-22T16:32:49.322Z,27.60
2017-09-22T16:35:16.780Z,26.20
2017-09-22T16:37:44.259Z,25.00
2017-09-22T16:40:12.302Z,23.90
2017-09-22T16:42:39.774Z,23.00
2017-09-22T16:45:07.246Z,22.40
2017-09-22T16:47:34.729Z,21.80
2017-09-22T16:50:02.960Z,20.90
2017-09-22T16:52:30.417Z,20.80
2017-09-22T16:54:57.901Z,20.60
2017-09-22T16:57:25.359Z,20.30
2017-09-22T16:59:52.829Z,20.00
2017-09-22T17:02:21.062Z,19.60
2017-09-22T17:04:48.519Z,19.50
2017-09-22T17:07:15.984Z,19.40
2017-09-22T17:09:43.454Z,19.20
2017-09-22T17:12:10.914Z,19.00
2017-09-22T17:14:38.383Z,18.90
2017-09-22T17:17:05.840Z,18.70
2017-09-22T17:19:33.340Z,18.50
2017-09-22T17:22:00.794Z,18.40
2017-09-22T17:24:28.258Z,18.30
2017-09-22T17:26:55.715Z,18.20
2017-09-22T17:29:23.178Z,18.10
2017-09-22T17:31:50.646Z,18.00
2017-09-22T17:34:18.126Z,17.90
2017-09-22T17:36:45.581Z,17.80
2017-09-22T17:39:13.041Z,17.80
2017-09-22T17:41:40.497Z,17.70
2017-09-22T17:44:07.958Z,17.60
2017-09-22T17:46:35.424Z,17.50
2017-09-22T17:49:03.648Z,17.30
2017-09-22T17:51:31.115Z,17.30
2017-09-22T17:53:58.574Z,17.30
2017-09-22T17:56:26.806Z,17.10
2017-09-22T17:58:54.263Z,17.10
2017-09-22T18:01:21.717Z,17.00
2017-09-22T18:03:49.173Z,16.90
2017-09-22T18:06:16.695Z,16.90
2017-09-22T18:08:44.971Z,16.70
2017-09-22T18:11:13.193Z,16.70
2017-09-22T18:13:40.649Z,16.60
2017-09-22T18:16:08.131Z,16.60
2017-09-22T18:18:35.588Z,16.60
2017-09-22T18:21:03.129Z,16.60
2017-09-22T18:23:30.601Z,16.50
2017-09-22T18:25:58.094Z,16.50
2017-09-22T18:28:25.549Z,16.50
2017-09-22T18:30:54.521Z,16.40
2017-09-22T18:33:21.986Z,16.40
2017-09-22T18:35:49.546Z,16.30
2017-09-22T18:38:17.108Z,16.30
2017-09-22T18:40:44.613Z,16.20
2017-09-22T18:43:12.078Z,16.20
2017-09-22T18:45:39.559Z,16.10
2017-09-22T18:48:07.146Z,16.00
2017-09-22T18:50:34.605Z,16.00
2017-09-22T18:53:02.845Z,16.00
2017-09-22T18:55:30.468Z,15.90
2017-09-22T18:57:58.161Z,15.90
2017-09-22T19:00:25.634Z,15.90
2017-09-22T19:02:53.107Z,15.80
2017-09-22T19:05:20.622Z,15.80
2017-09-22T19:07:48.093Z,15.80
2017-09-22T19:10:15.566Z,15.80
2017-09-22T19:12:43.130Z,15.70
2017-09-22T19:15:10.618Z,15.70
2017-09-22T19:17:38.852Z,15.70
2017-09-22T19:20:06.481Z,15.60
2017-09-22T19:22:33.940Z,15.60
2017-09-22T19:25:01.442Z,15.50
2017-09-22T19:27:29.055Z,15.50
2017-09-22T19:29:56.542Z,15.50
2017-09-22T19:32:24.018Z,15.50
2017-09-22T19:34:51.542Z,15.40
2017-09-22T19:37:19.273Z,15.40
2017-09-22T19:39:46.787Z,15.40
2017-09-22T19:42:14.262Z,15.40
2017-09-22T19:44:41.792Z,15.30
2017-09-22T19:47:09.276Z,15.30
2017-09-22T19:49:36.740Z,15.30
2017-09-22T19:52:04.974Z,15.20
2017-09-22T19:54:32.445Z,15.10
2017-09-22T19:56:59.970Z,15.10
2017-09-22T19:59:27.533Z,15.10
2017-09-22T20:01:55.002Z,15.10
2017-09-22T20:04:22.511Z,15.00
2017-09-22T20:06:50.178Z,15.00
2017-09-22T20:09:17.649Z,15.00
2017-09-22T20:11:45.122Z,14.90
2017-09-22T20:14:12.785Z,14.90
2017-09-22T20:16:40.436Z,14.90
2017-09-22T20:19:08.062Z,14.90
2017-09-22T20:21:36.514Z,14.80
2017-09-22T20:24:03.988Z,14.80
2017-09-22T20:26:32.220Z,14.80
2017-09-22T20:28:59.688Z,14.70
2017-09-22T20:31:27.178Z,14.70
2017-09-22T20:33:55.449Z,14.70
2017-09-22T20:36:23.758Z,14.70
2017-09-22T20:38:51.989Z,14.60
2017-09-22T20:41:19.457Z,14.60
2017-09-22T20:43:46.945Z,14.60
2017-09-22T20:46:14.572Z,14.50
2017-09-22T20:48:42.110Z,14.40
2017-09-22T20:51:09.595Z,14.30
2017-09-22T20:53:37.058Z,14.30
2017-09-22T20:56:05.304Z,14.30
2017-09-22T20:58:32.766Z,14.20
2017-09-22T21:01:00.325Z,14.30
2017-09-22T21:03:27.786Z,14.30
2017-09-22T21:05:55.244Z,14.30
2017-09-22T21:08:22.908Z,14.30
2017-09-22T21:10:50.447Z,14.30
2017-09-22T21:13:17.938Z,14.30
2017-09-22T21:15:46.170Z,14.20
2017-09-22T21:18:13.640Z,14.10
2017-09-22T21:20:41.108Z,14.10
2017-09-22T21:23:08.573Z,14.10
2017-09-22T21:25:36.810Z,14.10
2017-09-22T21:28:04.274Z,14.00
2017-09-22T21:30:32.518Z,14.00
2017-09-22T21:33:00.000Z,14.00
2017-09-22T21:35:27.466Z,14.00
2017-09-22T21:37:54.937Z,14.00
2017-09-22T21:40:22.392Z,14.00
2017-09-22T21:42:49.907Z,13.90
2017-09-22T21:45:17.361Z,13.90
2017-09-22T21:47:44.820Z,13.90
2017-09-22T21:50:12.289Z,13.80
2017-09-22T21:52:39.766Z,13.80
2017-09-22T21:55:08.021Z,13.80
2017-09-22T21:57:36.301Z,13.80
2017-09-22T22:00:05.268Z,13.70
2017-09-22T22:02:38.613Z,13.80
2017-09-22T22:05:11.654Z,13.80
2017-09-22T22:07:39.120Z,13.70
2017-09-22T22:10:06.594Z,13.70
2017-09-22T22:12:34.060Z,13.70
2017-09-22T22:15:01.647Z,13.60
2017-09-22T22:17:29.884Z,13.50
2017-09-22T22:19:57.728Z,13.40
2017-09-22T22:22:25.285Z,13.40
2017-09-22T22:24:52.790Z,13.50
2017-09-22T22:27:20.248Z,13.50
2017-09-22T22:29:47.709Z,13.50
2017-09-22T22:32:15.190Z,13.50
2017-09-22T22:34:43.442Z,13.20
2017-09-22T22:37:10.914Z,13.20
2017-09-22T22:39:39.150Z,13.30
2017-09-22T22:42:06.621Z,13.20
2017-09-22T22:44:34.090Z,13.30
2017-09-22T22:47:02.327Z,13.30
2017-09-22T22:49:29.793Z,13.30
2017-09-22T22:51:57.283Z,13.30
2017-09-22T22:54:25.515Z,13.30
2017-09-22T22:56:52.975Z,13.20
2017-09-22T22:59:20.455Z,13.30
2017-09-22T23:01:47.909Z,13.20
2017-09-22T23:04:15.385Z,13.20
2017-09-22T23:06:43.628Z,13.00
2017-09-22T23:09:11.101Z,13.00
2017-09-22T23:11:38.586Z,13.00
2017-09-22T23:14:06.057Z,13.00
2017-09-22T23:16:33.538Z,13.00
2017-09-22T23:19:01.003Z,13.10
2017-09-22T23:21:28.500Z,13.10
2017-09-22T23:23:56.736Z,13.00
2017-09-22T23:26:24.207Z,12.90
2017-09-22T23:28:51.680Z,12.90
2017-09-22T23:31:19.137Z,12.80
2017-09-22T23:33:46.646Z,12.80
2017-09-22T23:36:14.121Z,12.80
2017-09-22T23:38:41.609Z,12.80
2017-09-22T23:41:09.072Z,12.80
2017-09-22T23:43:36.530Z,12.90
2017-09-22T23:46:04.761Z,12.70
2017-09-22T23:48:32.234Z,12.70
2017-09-22T23:50:59.709Z,12.70
2017-09-22T23:53:27.175Z,12.60
2017-09-22T23:55:55.418Z,12.50
2017-09-22T23:58:22.906Z,12.50
